createdAt,value
2023-03-10T00:02:19.817Z,4.81
2023-03-10T00:04:50.511Z,4.93
2023-03-10T00:07:17.283Z,4.80
2023-03-10T00:09:43.748Z,4.77
2023-03-10T00:12:10.404Z,4.76
2023-03-10T00:14:36.810Z,4.75
2023-03-10T00:17:03.852Z,4.78
2023-03-10T00:19:30.595Z,4.60
2023-03-10T00:21:57.088Z,4.53
2023-03-10T00:24:23.484Z,4.63
2023-03-10T00:26:50.225Z,4.44
2023-03-10T00:29:17.369Z,4.65
2023-03-10T00:31:44.241Z,4.49
2023-03-10T00:34:11.604Z,4.50
2023-03-10T00:36:39.581Z,4.49
2023-03-10T00:39:06.995Z,4.49
2023-03-10T00:41:36.564Z,4.59
2023-03-10T00:44:03.788Z,4.54
2023-03-10T00:46:30.449Z,4.31
2023-03-10T00:48:57.027Z,4.33
2023-03-10T00:51:23.622Z,4.50
2023-03-10T00:53:50.289Z,4.13
2023-03-10T00:56:19.461Z,4.16
2023-03-10T00:58:46.600Z,4.37
2023-03-10T01:01:19.020Z,4.28
2023-03-10T01:03:46.011Z,4.43
2023-03-10T01:06:12.721Z,4.51
2023-03-10T01:08:39.561Z,4.35
2023-03-10T01:11:06.658Z,4.27
2023-03-10T01:13:33.247Z,4.49
2023-03-10T01:16:00.045Z,4.39
2023-03-10T01:18:26.547Z,4.45
2023-03-10T01:20:52.933Z,3.96
2023-03-10T01:23:22.104Z,4.34
2023-03-10T01:25:49.007Z,4.51
2023-03-10T01:28:15.499Z,4.23
2023-03-10T01:30:42.359Z,4.50
2023-03-10T01:33:09.502Z,4.37
2023-03-10T01:35:36.623Z,4.43
2023-03-10T01:38:04.069Z,4.60
2023-03-10T01:40:30.481Z,4.38
2023-03-10T01:43:15.170Z,4.31
2023-03-10T01:45:41.453Z,4.48
2023-03-10T01:48:07.835Z,4.63
2023-03-10T01:50:34.293Z,4.51
2023-03-10T01:53:00.738Z,4.34
2023-03-10T01:55:30.704Z,4.49
2023-03-10T01:57:57.885Z,4.36
2023-03-10T02:00:26.038Z,4.48
2023-03-10T02:03:11.636Z,4.26
2023-03-10T02:05:41.929Z,4.31
2023-03-10T02:08:09.659Z,4.65
2023-03-10T02:10:36.193Z,4.44
2023-03-10T02:13:02.644Z,4.42
2023-03-10T02:15:29.544Z,4.47
2023-03-10T02:17:56.284Z,4.24
2023-03-10T02:20:33.006Z,4.21
2023-03-10T02:22:59.394Z,4.29
2023-03-10T02:25:49.113Z,4.50
2023-03-10T02:28:16.214Z,4.57
2023-03-10T02:30:48.230Z,4.09
2023-03-10T02:33:26.552Z,4.16
2023-03-10T02:35:53.503Z,4.66
2023-03-10T02:38:20.413Z,4.26
2023-03-10T02:40:49.354Z,4.26
2023-03-10T02:43:28.820Z,4.09
2023-03-10T02:45:57.503Z,4.20
2023-03-10T02:48:30.038Z,4.43
2023-03-10T02:50:57.680Z,4.45
2023-03-10T02:53:26.124Z,4.27
2023-03-10T02:55:53.435Z,4.71
2023-03-10T02:58:22.654Z,4.54
2023-03-10T03:00:50.106Z,4.47
2023-03-10T03:03:18.116Z,4.41
2023-03-10T03:05:44.708Z,4.68
2023-03-10T03:08:11.237Z,4.39
2023-03-10T03:10:38.422Z,4.34
2023-03-10T03:13:05.769Z,4.45
2023-03-10T03:15:32.601Z,4.19
2023-03-10T03:17:59.591Z,4.04
2023-03-10T03:20:27.641Z,4.38
2023-03-10T03:22:54.591Z,4.14
2023-03-10T03:25:22.559Z,4.03
2023-03-10T03:27:49.200Z,3.95
2023-03-10T03:30:21.709Z,4.16
2023-03-10T03:32:48.617Z,3.88
2023-03-10T03:35:18.091Z,3.92
2023-03-10T03:37:44.844Z,3.89
2023-03-10T03:40:13.161Z,3.91
2023-03-10T03:42:44.383Z,3.93
2023-03-10T03:45:12.130Z,4.06
2023-03-10T03:47:38.486Z,3.91
2023-03-10T03:50:05.524Z,3.77
2023-03-10T03:52:32.093Z,3.94
2023-03-10T03:54:58.636Z,3.97
2023-03-10T03:57:25.092Z,3.97
2023-03-10T03:59:51.709Z,3.87
2023-03-10T04:02:18.399Z,3.89
2023-03-10T04:04:44.850Z,3.93
2023-03-10T04:07:11.394Z,4.09
2023-03-10T04:09:42.647Z,4.02
2023-03-10T04:12:09.916Z,4.06
2023-03-10T04:14:37.052Z,4.02
2023-03-10T04:17:03.974Z,3.67
2023-03-10T04:19:30.549Z,3.85
2023-03-10T04:21:56.905Z,3.73
2023-03-10T04:24:23.392Z,3.92
2023-03-10T04:26:49.766Z,3.95
2023-03-10T04:29:16.243Z,4.00
2023-03-10T04:31:44.976Z,3.94
2023-03-10T04:34:16.954Z,3.99
2023-03-10T04:36:43.315Z,3.86
2023-03-10T04:39:09.842Z,3.89
2023-03-10T04:41:36.693Z,3.91
2023-03-10T04:44:03.698Z,4.16
2023-03-10T04:46:31.775Z,4.20
2023-03-10T04:48:58.242Z,3.96
2023-03-10T04:51:24.616Z,3.83
2023-03-10T04:53:51.017Z,3.83
2023-03-10T04:56:17.466Z,3.88
2023-03-10T04:58:43.894Z,3.80
2023-03-10T05:01:11.466Z,3.87
2023-03-10T05:03:37.855Z,4.02
2023-03-10T05:06:05.011Z,3.98
2023-03-10T05:08:31.398Z,4.07
2023-03-10T05:10:59.039Z,4.34
2023-03-10T05:13:25.455Z,3.93
2023-03-10T05:15:52.370Z,3.78
2023-03-10T05:18:19.523Z,3.98
2023-03-10T05:20:46.048Z,4.02
2023-03-10T05:23:12.400Z,3.90
2023-03-10T05:25:40.164Z,3.70
2023-03-10T05:28:08.903Z,3.89
2023-03-10T05:30:35.266Z,4.11
2023-03-10T05:33:02.228Z,4.06
2023-03-10T05:35:28.645Z,4.00
2023-03-10T05:37:55.015Z,4.00
2023-03-10T05:40:21.479Z,4.15
2023-03-10T05:42:48.834Z,3.90
2023-03-10T05:45:15.616Z,3.94
2023-03-10T05:47:42.698Z,3.87
2023-03-10T05:50:10.572Z,3.65
2023-03-10T05:52:38.509Z,4.07
2023-03-10T05:55:05.988Z,4.08
2023-03-10T05:57:32.404Z,3.88
2023-03-10T05:59:58.806Z,3.97
2023-03-10T06:02:25.215Z,3.93
2023-03-10T06:04:51.601Z,4.00
2023-03-10T06:07:18.235Z,4.21
2023-03-10T06:09:44.923Z,4.09
2023-03-10T06:12:11.890Z,3.98
2023-03-10T06:14:38.567Z,4.11
2023-03-10T06:17:05.002Z,3.99
2023-03-10T06:19:31.629Z,3.81
2023-03-10T06:21:57.999Z,3.81
2023-03-10T06:24:24.406Z,3.85
2023-03-10T06:26:50.908Z,3.53
2023-03-10T06:29:17.330Z,3.93
2023-03-10T06:31:43.783Z,4.06
2023-03-10T06:34:10.390Z,3.93
2023-03-10T06:36:39.113Z,3.71
2023-03-10T06:39:05.547Z,3.82
2023-03-10T06:41:32.302Z,4.12
2023-03-10T06:43:59.028Z,4.05
2023-03-10T06:46:25.701Z,3.70
2023-03-10T06:48:52.155Z,3.87
2023-03-10T06:51:20.745Z,4.05
2023-03-10T06:53:47.554Z,3.83
2023-03-10T06:56:17.020Z,3.88
2023-03-10T06:58:44.085Z,4.01
2023-03-10T07:01:27.402Z,3.96
2023-03-10T07:03:54.163Z,3.79
2023-03-10T07:06:21.313Z,3.76
2023-03-10T07:08:47.855Z,3.82
2023-03-10T07:11:14.600Z,3.85
2023-03-10T07:13:40.999Z,3.92
2023-03-10T07:16:07.850Z,3.86
2023-03-10T07:18:35.549Z,4.07
2023-03-10T07:21:02.453Z,3.80
2023-03-10T07:23:28.831Z,4.06
2023-03-10T07:25:56.877Z,3.98
2023-03-10T07:28:24.130Z,3.96
2023-03-10T07:30:50.825Z,3.98
2023-03-10T07:33:17.248Z,3.91
2023-03-10T07:35:44.015Z,4.09
2023-03-10T07:38:10.426Z,4.02
2023-03-10T07:40:39.530Z,4.03
2023-03-10T07:43:05.936Z,3.87
2023-03-10T07:45:33.642Z,3.75
2023-03-10T07:48:00.272Z,3.83
2023-03-10T07:50:26.692Z,3.98
2023-03-10T07:52:54.885Z,4.14
2023-03-10T07:55:21.712Z,4.08
2023-03-10T07:57:48.101Z,4.18
2023-03-10T08:00:16.326Z,3.93
2023-03-10T08:02:42.766Z,4.02
2023-03-10T08:05:10.144Z,3.98
2023-03-10T08:07:37.220Z,3.87
2023-03-10T08:10:04.147Z,3.80
2023-03-10T08:12:30.506Z,4.11
2023-03-10T08:14:56.977Z,4.06
2023-03-10T08:17:30.370Z,4.01
2023-03-10T08:19:58.445Z,3.84
2023-03-10T08:22:24.852Z,4.23
2023-03-10T08:24:56.038Z,4.17
2023-03-10T08:27:22.481Z,4.25
2023-03-10T08:29:49.019Z,4.44
2023-03-10T08:32:15.502Z,4.16
2023-03-10T08:34:43.057Z,4.16
2023-03-10T08:37:10.362Z,4.36
2023-03-10T08:39:37.578Z,4.26
2023-03-10T08:42:04.125Z,4.17
2023-03-10T08:44:30.818Z,4.35
2023-03-10T08:46:57.484Z,4.29
2023-03-10T08:49:23.912Z,4.77
2023-03-10T08:51:50.417Z,4.53
2023-03-10T08:54:19.341Z,4.39
2023-03-10T08:56:45.779Z,4.35
2023-03-10T08:59:12.406Z,4.77
2023-03-10T09:01:39.161Z,4.51
2023-03-10T09:04:06.841Z,4.45
2023-03-10T09:06:34.040Z,4.33
2023-03-10T09:09:00.873Z,4.54
2023-03-10T09:11:31.452Z,4.72
2023-03-10T09:13:58.336Z,5.15
2023-03-10T09:16:25.175Z,5.25
2023-03-10T09:18:51.717Z,5.03
2023-03-10T09:21:19.335Z,4.94
2023-03-10T09:23:47.642Z,4.71
2023-03-10T09:26:14.903Z,5.15
2023-03-10T09:28:41.437Z,5.02
2023-03-10T09:31:09.234Z,4.78
2023-03-10T09:33:35.714Z,4.81
2023-03-10T09:36:07.412Z,4.51
2023-03-10T09:38:34.864Z,5.19
2023-03-10T09:41:13.347Z,5.09
2023-03-10T09:43:45.089Z,4.91
2023-03-10T09:46:53.548Z,5.40
2023-03-10T09:49:25.076Z,4.94
2023-03-10T09:51:51.890Z,5.22
2023-03-10T09:54:30.378Z,5.13
2023-03-10T09:56:57.755Z,5.30
2023-03-10T09:59:31.417Z,5.17
2023-03-10T10:01:58.096Z,5.61
2023-03-10T10:04:35.689Z,5.42
2023-03-10T10:07:03.733Z,5.23
2023-03-10T10:09:43.960Z,4.97
2023-03-10T10:12:15.912Z,5.20
2023-03-10T10:14:55.052Z,5.73
2023-03-10T10:17:53.740Z,5.11
2023-03-10T10:20:42.571Z,5.07
2023-03-10T10:23:24.979Z,4.83
2023-03-10T10:25:51.612Z,4.87
2023-03-10T10:28:29.927Z,4.93
2023-03-10T10:31:20.637Z,5.39
2023-03-10T10:33:59.248Z,5.51
2023-03-10T10:36:36.787Z,5.54
2023-03-10T10:39:05.920Z,5.75
2023-03-10T10:41:34.713Z,5.68
2023-03-10T10:44:09.433Z,6.15
2023-03-10T10:46:36.111Z,5.67
2023-03-10T10:49:25.877Z,5.89
2023-03-10T10:52:04.086Z,5.80
2023-03-10T10:54:41.418Z,5.58
2023-03-10T10:57:32.520Z,6.07
2023-03-10T11:00:31.757Z,5.10
2023-03-10T11:02:58.343Z,5.47
2023-03-10T11:05:32.493Z,5.78
2023-03-10T11:08:23.393Z,5.50
2023-03-10T11:10:56.782Z,5.06
2023-03-10T11:13:29.485Z,5.14
2023-03-10T11:16:03.821Z,5.09
2023-03-10T11:18:41.113Z,5.18
2023-03-10T11:21:14.462Z,6.02
2023-03-10T11:23:54.904Z,6.30
2023-03-10T11:27:10.057Z,6.77
2023-03-10T11:30:06.093Z,6.97
2023-03-10T11:32:49.990Z,6.82
2023-03-10T11:35:24.433Z,6.57
2023-03-10T11:37:57.042Z,6.91
2023-03-10T11:40:42.842Z,5.91
2023-03-10T11:44:01.911Z,5.53
2023-03-10T11:46:37.819Z,6.12
2023-03-10T11:49:10.510Z,6.38
2023-03-10T11:51:47.176Z,6.10
2023-03-10T11:54:19.671Z,5.75
2023-03-10T11:56:47.199Z,5.42
2023-03-10T11:59:24.935Z,5.72
2023-03-10T12:01:56.141Z,5.58
2023-03-10T12:04:49.774Z,5.35
2023-03-10T12:07:21.795Z,5.58
2023-03-10T12:09:55.005Z,5.72
2023-03-10T12:12:34.919Z,5.26
2023-03-10T12:15:03.621Z,5.74
2023-03-10T12:17:30.177Z,5.11
2023-03-10T12:20:14.576Z,5.46
2023-03-10T12:22:53.119Z,5.54
2023-03-10T12:25:43.215Z,5.93
2023-03-10T12:28:15.648Z,6.07
2023-03-10T12:31:03.979Z,5.23
2023-03-10T12:33:30.319Z,5.66
2023-03-10T12:36:16.731Z,6.01
2023-03-10T12:39:04.244Z,5.66
2023-03-10T12:41:30.669Z,6.25
2023-03-10T12:44:23.154Z,6.53
2023-03-10T12:46:53.134Z,6.03
2023-03-10T12:49:43.170Z,5.84
2023-03-10T12:52:31.209Z,5.80
2023-03-10T12:55:26.546Z,5.97
2023-03-10T12:57:53.956Z,5.83
2023-03-10T13:00:25.540Z,5.85
2023-03-10T13:03:05.350Z,5.25
2023-03-10T13:05:35.255Z,5.85
2023-03-10T13:08:12.959Z,5.12
2023-03-10T13:10:39.735Z,5.03
2023-03-10T13:13:08.862Z,5.43
2023-03-10T13:15:35.788Z,5.25
2023-03-10T13:18:17.528Z,5.43
2023-03-10T13:20:43.927Z,5.47
2023-03-10T13:23:24.085Z,6.10
2023-03-10T13:25:54.404Z,5.79
2023-03-10T13:28:21.002Z,6.03
2023-03-10T13:30:47.624Z,6.19
2023-03-10T13:33:20.194Z,6.20
2023-03-10T13:35:47.657Z,5.77
2023-03-10T13:38:21.874Z,6.15
2023-03-10T13:40:57.556Z,5.73
2023-03-10T13:43:33.425Z,5.75
2023-03-10T13:46:01.466Z,5.70
2023-03-10T13:48:28.788Z,5.86
2023-03-10T13:51:13.949Z,5.97
2023-03-10T13:53:40.449Z,5.94
2023-03-10T13:56:17.569Z,5.74
2023-03-10T13:58:44.887Z,5.64
2023-03-10T14:01:18.054Z,5.68
2023-03-10T14:03:55.347Z,5.02
2023-03-10T14:06:22.899Z,5.38
2023-03-10T14:08:50.225Z,5.19
2023-03-10T14:11:41.186Z,4.87
2023-03-10T14:14:10.853Z,5.17
2023-03-10T14:16:52.885Z,5.30
2023-03-10T14:19:41.149Z,5.35
2023-03-10T14:22:29.561Z,5.04
2023-03-10T14:24:57.062Z,5.05
2023-03-10T14:27:24.719Z,5.00
2023-03-10T14:29:54.035Z,5.14
2023-03-10T14:32:20.732Z,5.05
2023-03-10T14:34:48.306Z,4.98
2023-03-10T14:37:15.161Z,5.10
2023-03-10T14:39:41.662Z,4.50
2023-03-10T14:42:17.797Z,4.56
2023-03-10T14:44:44.470Z,4.96
2023-03-10T14:47:11.124Z,4.47
2023-03-10T14:49:37.751Z,4.70
2023-03-10T14:52:09.285Z,4.84
2023-03-10T14:54:35.677Z,4.76
2023-03-10T14:57:02.196Z,4.50
2023-03-10T14:59:28.693Z,4.51
2023-03-10T15:01:56.182Z,4.54
2023-03-10T15:04:22.688Z,4.75
2023-03-10T15:06:49.149Z,4.64
2023-03-10T15:09:15.579Z,4.67
2023-03-10T15:11:42.125Z,4.60
2023-03-10T15:14:19.237Z,4.27
2023-03-10T15:16:45.685Z,4.40
2023-03-10T15:19:19.774Z,4.04
2023-03-10T15:21:46.242Z,4.16
2023-03-10T15:24:12.620Z,4.17
2023-03-10T15:26:39.004Z,4.29
2023-03-10T15:29:05.688Z,4.22
2023-03-10T15:31:32.494Z,4.25
2023-03-10T15:33:58.958Z,4.22
2023-03-10T15:36:25.423Z,4.33
2023-03-10T15:38:52.947Z,4.35
2023-03-10T15:41:19.430Z,4.35
2023-03-10T15:43:45.867Z,4.44
2023-03-10T15:46:12.373Z,4.09
2023-03-10T15:48:38.853Z,4.35
2023-03-10T15:51:10.506Z,4.28
2023-03-10T15:53:37.015Z,4.31
2023-03-10T15:56:07.721Z,4.26
2023-03-10T15:58:35.949Z,4.27
2023-03-10T16:01:12.358Z,4.35
2023-03-10T16:03:38.922Z,4.12
2023-03-10T16:06:05.854Z,4.37
2023-03-10T16:08:37.187Z,4.17
2023-03-10T16:11:06.166Z,4.28
2023-03-10T16:13:32.853Z,4.02
2023-03-10T16:16:04.563Z,4.00
2023-03-10T16:18:31.093Z,3.73
2023-03-10T16:20:58.596Z,3.95
2023-03-10T16:23:29.451Z,4.30
2023-03-10T16:26:22.586Z,4.35
2023-03-10T16:28:52.083Z,4.07
2023-03-10T16:31:20.095Z,4.14
2023-03-10T16:33:51.368Z,4.20
2023-03-10T16:36:23.334Z,4.12
2023-03-10T16:38:50.472Z,4.33
2023-03-10T16:41:17.293Z,4.39
2023-03-10T16:43:43.747Z,4.35
2023-03-10T16:46:21.515Z,4.04
2023-03-10T16:48:48.370Z,3.97
2023-03-10T16:51:31.550Z,4.16
2023-03-10T16:54:00.242Z,4.23
2023-03-10T16:56:28.200Z,4.14
2023-03-10T16:58:54.908Z,4.29
2023-03-10T17:01:23.941Z,4.20
2023-03-10T17:03:54.133Z,4.13
2023-03-10T17:06:23.838Z,4.08
2023-03-10T17:08:51.083Z,3.96
2023-03-10T17:11:23.424Z,3.64
2023-03-10T17:13:53.181Z,3.92
2023-03-10T17:16:23.293Z,3.98
2023-03-10T17:18:50.221Z,4.01
2023-03-10T17:21:22.690Z,3.83
2023-03-10T17:23:49.530Z,4.16
2023-03-10T17:26:17.018Z,4.16
2023-03-10T17:28:44.925Z,4.02
2023-03-10T17:31:14.254Z,4.23
2023-03-10T17:33:42.518Z,4.10
2023-03-10T17:36:12.208Z,3.92
2023-03-10T17:38:38.879Z,4.13
2023-03-10T17:41:06.781Z,3.89
2023-03-10T17:43:34.796Z,4.09
2023-03-10T17:46:04.490Z,4.05
2023-03-10T17:48:31.393Z,3.88
2023-03-10T17:50:57.930Z,3.80
2023-03-10T17:53:24.964Z,3.91
2023-03-10T17:55:51.487Z,3.85
2023-03-10T17:58:18.022Z,3.90
2023-03-10T18:00:44.556Z,3.84
2023-03-10T18:03:11.109Z,3.81
2023-03-10T18:05:41.905Z,3.97
2023-03-10T18:08:08.501Z,3.94
2023-03-10T18:10:35.555Z,3.90
2023-03-10T18:13:07.939Z,3.74
2023-03-10T18:15:34.940Z,3.83
2023-03-10T18:18:02.077Z,3.93
2023-03-10T18:20:28.630Z,3.99
2023-03-10T18:22:55.113Z,3.75
2023-03-10T18:25:21.539Z,3.84
2023-03-10T18:27:48.429Z,3.76
2023-03-10T18:30:15.651Z,3.76
2023-03-10T18:32:42.232Z,3.91
2023-03-10T18:35:11.046Z,3.72
2023-03-10T18:37:37.539Z,3.68
2023-03-10T18:40:05.924Z,3.96
2023-03-10T18:42:33.123Z,3.85
2023-03-10T18:44:59.522Z,3.90
2023-03-10T18:47:25.953Z,3.94
2023-03-10T18:49:52.319Z,3.96
2023-03-10T18:52:18.693Z,3.94
2023-03-10T18:54:46.965Z,3.91
2023-03-10T18:57:14.449Z,3.77
2023-03-10T18:59:40.982Z,3.78
2023-03-10T19:02:12.510Z,3.74
2023-03-10T19:04:40.205Z,3.73
2023-03-10T19:07:07.633Z,3.67
2023-03-10T19:09:34.150Z,3.75
2023-03-10T19:12:00.560Z,3.66
2023-03-10T19:14:26.986Z,3.76
2023-03-10T19:16:53.412Z,3.58
2023-03-10T19:19:19.825Z,3.67
2023-03-10T19:21:46.274Z,3.76
2023-03-10T19:24:12.659Z,3.81
2023-03-10T19:26:39.058Z,3.81
2023-03-10T19:29:05.434Z,3.78
2023-03-10T19:31:31.925Z,3.83
2023-03-10T19:33:58.847Z,3.76
2023-03-10T19:36:26.565Z,3.56
2023-03-10T19:38:53.323Z,3.78
2023-03-10T19:41:19.728Z,3.71
2023-03-10T19:43:48.786Z,3.74
2023-03-10T19:46:15.860Z,3.63
2023-03-10T19:48:43.134Z,3.73
2023-03-10T19:51:20.946Z,3.84
2023-03-10T19:53:47.618Z,3.86
2023-03-10T19:56:16.100Z,3.79
2023-03-10T19:58:42.628Z,3.69
2023-03-10T20:01:16.272Z,3.68
2023-03-10T20:03:43.193Z,3.50
2023-03-10T20:06:09.699Z,3.53
2023-03-10T20:08:37.991Z,3.66
2023-03-10T20:11:05.339Z,3.62
2023-03-10T20:13:32.732Z,3.57
2023-03-10T20:15:59.586Z,3.16
2023-03-10T20:18:25.975Z,3.21
2023-03-10T20:20:52.456Z,3.35
2023-03-10T20:23:18.851Z,3.36
2023-03-10T20:25:46.301Z,3.65
2023-03-10T20:28:13.354Z,3.57
2023-03-10T20:30:41.090Z,3.50
2023-03-10T20:33:07.529Z,3.44
2023-03-10T20:35:34.316Z,3.55
2023-03-10T20:38:00.790Z,3.60
2023-03-10T20:40:27.687Z,3.63
2023-03-10T20:42:56.767Z,3.69
2023-03-10T20:45:23.481Z,3.80
2023-03-10T20:47:50.184Z,3.65
2023-03-10T20:50:17.307Z,3.81
2023-03-10T20:52:44.121Z,3.68
2023-03-10T20:55:20.882Z,3.62
2023-03-10T20:57:48.000Z,3.75
2023-03-10T21:00:16.459Z,3.64
2023-03-10T21:02:47.450Z,3.64
2023-03-10T21:05:14.294Z,3.68
2023-03-10T21:07:40.852Z,3.62
2023-03-10T21:10:09.287Z,3.82
2023-03-10T21:12:35.648Z,3.88
2023-03-10T21:15:02.024Z,4.04
2023-03-10T21:17:28.487Z,4.05
2023-03-10T21:19:54.905Z,4.04
2023-03-10T21:22:21.477Z,3.80
2023-03-10T21:24:49.091Z,3.87
2023-03-10T21:27:15.767Z,3.97
2023-03-10T21:29:42.998Z,3.98
2023-03-10T21:32:09.354Z,3.90
2023-03-10T21:34:35.743Z,3.81
2023-03-10T21:37:02.104Z,3.87
2023-03-10T21:39:28.473Z,3.84
2023-03-10T21:41:54.847Z,3.89
2023-03-10T21:44:21.219Z,3.82
2023-03-10T21:46:49.123Z,3.74
2023-03-10T21:49:15.715Z,3.87
2023-03-10T21:51:42.108Z,3.91
2023-03-10T21:54:09.883Z,3.96
2023-03-10T21:56:36.248Z,4.12
2023-03-10T21:59:02.598Z,3.92
2023-03-10T22:01:38.210Z,4.05
2023-03-10T22:04:04.912Z,3.94
2023-03-10T22:06:31.588Z,4.12
2023-03-10T22:08:57.964Z,4.09
2023-03-10T22:11:24.487Z,4.24
2023-03-10T22:13:53.043Z,4.14
2023-03-10T22:16:19.440Z,4.15
2023-03-10T22:18:45.944Z,4.14
2023-03-10T22:21:12.339Z,4.15
2023-03-10T22:23:38.789Z,4.13
2023-03-10T22:26:05.215Z,4.22
2023-03-10T22:28:32.417Z,4.27
2023-03-10T22:30:58.827Z,4.22
2023-03-10T22:33:25.214Z,4.10
2023-03-10T22:35:52.304Z,4.12
2023-03-10T22:38:20.210Z,4.06
2023-03-10T22:40:47.144Z,4.21
2023-03-10T22:43:13.770Z,4.28
2023-03-10T22:45:41.711Z,4.15
2023-03-10T22:48:09.092Z,4.02
2023-03-10T22:50:43.471Z,4.02
2023-03-10T22:53:15.131Z,3.93
2023-03-10T22:55:43.497Z,3.95
2023-03-10T22:58:11.030Z,4.16
2023-03-10T23:00:38.434Z,4.21
2023-03-10T23:03:06.172Z,4.24
2023-03-10T23:05:33.116Z,4.19
2023-03-10T23:07:59.722Z,4.21
2023-03-10T23:10:31.642Z,4.15
2023-03-10T23:12:59.775Z,3.96
2023-03-10T23:15:28.957Z,4.20
2023-03-10T23:17:55.942Z,4.00
2023-03-10T23:20:28.305Z,4.14
2023-03-10T23:22:56.331Z,4.21
2023-03-10T23:25:40.674Z,4.21
2023-03-10T23:28:08.625Z,4.27
2023-03-10T23:30:36.479Z,4.14
2023-03-10T23:33:03.141Z,3.98
2023-03-10T23:35:31.905Z,3.86
2023-03-10T23:38:00.163Z,3.91
2023-03-10T23:40:27.908Z,3.97
2023-03-10T23:42:55.627Z,3.93
2023-03-10T23:45:23.177Z,3.73
2023-03-10T23:47:50.442Z,3.82
2023-03-10T23:50:21.439Z,4.02
2023-03-10T23:52:47.925Z,4.05
2023-03-10T23:55:17.074Z,3.97
2023-03-10T23:57:43.448Z,3.60
